Time;durP1;ratioP1;P1;durP2;ratioP2;P2;SDS_P1;SDS_P2;PMS_P1;PMS_P2;Temp;Humidity;BMP_temperature;BMP_pressure;BME280_temperature;BME280_humidity;BME280_pressure;Samples;Min_cycle;Max_cycle;Signal;HPM_P1;HPM_P2
2021/11/07 00:00:11;;;;;;;57.85;31.38;;;;;;;13.62;94.12;101185.16;5050749;28;20063;-20
2021/11/07 00:05:21;;;;;;;59.90;32.85;;;;;;;13.77;94.30;101198.34;5050584;28;20037;-21
2021/11/07 00:08:00;;;;;;;58.33;32.20;;;;;;;13.80;93.42;101191.72;5050207;28;20036;-21
2021/11/07 00:12:55;;;;;;;58.47;31.48;;;;;;;13.87;94.03;101200.53;5049967;28;20056;-21
2021/11/07 00:15:21;;;;;;;56.75;31.83;;;;;;;13.82;93.27;101189.66;5049673;28;20063;-20
2021/11/07 00:17:52;;;;;;;56.63;31.20;;;;;;;14.02;92.67;101200.28;5032331;28;20037;-20
2021/11/07 00:20:28;;;;;;;55.58;31.85;;;;;;;14.05;92.28;101200.66;5032073;28;20458;-21
2021/11/07 00:25:40;;;;;;;;;;;;;;;14.24;90.90;101198.09;5050680;28;20067;-20
2021/11/07 00:28:10;;;;;;;59.90;31.33;;;;;;;14.18;90.57;101190.91;5049930;28;20444;-21
2021/11/07 00:38:36;;;;;;;56.67;30.25;;;;;;;14.21;90.07;101182.44;5033674;28;20364;-20
2021/11/07 00:44:10;;;;;;;57.42;31.60;;;;;;;14.44;88.69;101173.81;5049732;28;20416;-21
2021/11/07 00:49:34;;;;;;;56.78;29.88;;;;;;;14.72;87.26;101183.34;5049960;28;20109;-20
2021/11/07 00:54:40;;;;;;;51.88;30.88;;;;;;;14.60;88.02;101186.72;5049250;28;20128;-21
2021/11/07 00:58:10;;;;;;;52.42;29.83;;;;;;;14.66;87.87;101190.41;5049376;28;20029;-21
2021/11/07 01:00:08;;;;;;;53.80;30.25;;;;;;;14.93;86.37;101174.09;5027404;28;20048;-21
2021/11/07 01:02:37;;;;;;;47.20;28.40;;;;;;;15.15;85.32;101182.56;5032324;28;20033;-20
2021/11/07 01:05:14;;;;;;;53.20;29.15;;;;;;;14.92;85.49;101177.81;5049334;28;20029;-20
2021/11/07 01:07:40;;;;;;;51.75;29.40;;;;;;;14.85;85.73;101159.91;5049425;28;20488;-23
2021/11/07 01:10:06;;;;;;;53.08;30.42;;;;;;;14.86;85.75;101166.91;5049105;28;20040;-21
2021/11/07 01:12:31;;;;;;;52.10;30.35;;;;;;;14.83;86.31;101175.41;5048463;28;20064;-22
2021/11/07 01:14:57;;;;;;;51.10;30.60;;;;;;;14.64;86.75;101165.66;5049160;28;20029;-21
2021/11/07 01:17:23;;;;;;;50.63;29.10;;;;;;;14.73;87.24;101167.03;5048892;28;20535;-20
2021/11/07 01:19:52;;;;;;;51.35;29.05;;;;;;;14.84;86.55;101166.31;5048943;28;20025;-20
2021/11/07 01:22:22;;;;;;;52.00;28.48;;;;;;;14.86;86.47;101155.34;5048825;28;20487;-20
2021/11/07 01:24:54;;;;;;;51.95;29.08;;;;;;;14.95;86.20;101161.25;5049428;28;20035;-20
2021/11/07 01:27:34;;;;;;;52.53;30.77;;;;;;;14.88;86.45;101160.50;5048771;28;20525;-21
2021/11/07 01:30:02;;;;;;;52.60;30.65;;;;;;;14.68;85.84;101150.75;5048758;28;20044;-20
2021/11/07 01:32:33;;;;;;;51.85;31.02;;;;;;;14.80;86.26;101157.03;5048503;28;20032;-20
2021/11/07 01:35:08;;;;;;;55.08;29.75;;;;;;;15.15;85.03;101159.19;5048812;28;20035;-21
2021/11/07 01:37:40;;;;;;;55.85;29.75;;;;;;;14.90;86.00;101145.00;5048720;28;20035;-20
2021/11/07 01:42:41;;;;;;;51.65;29.88;;;;;;;15.43;82.95;101157.88;5048267;28;20028;-20
2021/11/07 01:45:16;;;;;;;52.10;29.77;;;;;;;15.92;80.70;101161.44;5031896;28;20515;-21
2021/11/07 01:47:48;;;;;;;54.55;30.48;;;;;;;15.89;80.80;101177.19;5031426;28;20431;-21
2021/11/07 01:50:14;;;;;;;52.25;29.25;;;;;;;15.62;81.20;101167.56;5048121;28;20431;-20
2021/11/07 01:52:42;;;;;;;52.42;29.80;;;;;;;15.61;82.16;101176.69;5048369;28;20021;-21
2021/11/07 01:55:07;;;;;;;;;;;;;;;15.86;80.52;101168.53;5048905;28;20563;-21
2021/11/07 01:57:34;;;;;;;52.30;28.65;;;;;;;15.36;82.97;101162.50;5048413;28;20022;-20
2021/11/07 02:00:02;;;;;;;48.42;28.00;;;;;;;15.18;84.06;101155.22;5048186;28;20032;-21
2021/11/07 02:02:30;;;;;;;52.60;29.40;;;;;;;15.23;84.20;101153.53;5030230;28;20102;-20
2021/11/07 02:04:55;;;;;;;50.58;29.25;;;;;;;15.13;84.23;101147.03;5048441;28;20618;-20
2021/11/07 02:07:21;;;;;;;50.42;29.25;;;;;;;15.24;83.22;101154.34;5048495;28;20037;-20
2021/11/07 02:09:47;;;;;;;51.20;30.00;;;;;;;14.93;84.83;101137.28;5047989;28;20029;-21
2021/11/07 02:12:12;;;;;;;51.00;28.55;;;;;;;14.77;85.87;101136.00;5029661;28;20021;-21
2021/11/07 02:14:38;;;;;;;50.58;29.42;;;;;;;14.82;86.23;101146.91;5048184;28;20036;-21
2021/11/07 02:17:04;;;;;;;50.13;29.60;;;;;;;14.82;85.90;101141.53;5048087;28;20037;-21
2021/11/07 02:19:30;;;;;;;48.47;28.40;;;;;;;14.93;84.81;101141.84;5048308;28;20029;-20
2021/11/07 02:21:56;;;;;;;50.17;30.25;;;;;;;14.83;85.95;101123.53;5048074;28;20044;-20
2021/11/07 02:24:22;;;;;;;51.53;29.30;;;;;;;15.08;84.78;101147.72;5047962;28;20416;-21
2021/11/07 02:26:57;;;;;;;50.80;29.05;;;;;;;15.01;84.31;101149.63;5047935;28;20057;-21
2021/11/07 02:29:22;;;;;;;53.42;29.67;;;;;;;15.05;84.48;101135.53;5047850;28;20025;-20
2021/11/07 02:31:49;;;;;;;54.97;29.75;;;;;;;15.13;83.84;101131.72;5048021;28;20055;-21
2021/11/07 02:34:14;;;;;;;51.72;29.38;;;;;;;15.10;84.17;101142.94;5048004;28;20059;-20
2021/11/07 02:36:40;;;;;;;53.20;28.98;;;;;;;15.11;84.27;101135.69;5048027;28;20037;-20
2021/11/07 02:39:05;;;;;;;53.88;30.10;;;;;;;14.92;84.81;101113.38;5047949;28;20079;-20
2021/11/07 02:41:31;;;;;;;52.10;30.33;;;;;;;15.18;84.46;101134.59;5030113;28;20025;-20
2021/11/07 02:43:56;;;;;;;52.83;30.30;;;;;;;15.09;84.26;101130.53;5047858;28;20103;-21
2021/11/07 02:46:22;;;;;;;49.38;28.10;;;;;;;15.27;83.57;101138.59;5048112;28;20051;-22
2021/11/07 02:49:06;;;;;;;54.28;30.63;;;;;;;15.04;84.14;101133.06;5030121;28;20039;-21
2021/11/07 02:51:33;;;;;;;52.75;29.77;;;;;;;15.00;84.71;101137.25;5047799;28;20036;-21
2021/11/07 02:54:00;;;;;;;52.35;29.25;;;;;;;15.06;84.87;101147.09;5049696;28;20075;-20
2021/11/07 02:56:25;;;;;;;50.97;28.75;;;;;;;15.04;84.75;101139.25;5050059;28;20040;-21
2021/11/07 02:58:51;;;;;;;48.58;28.35;;;;;;;14.74;86.14;101133.75;5033853;28;20029;-21
2021/11/07 03:01:23;;;;;;;52.80;29.40;;;;;;;15.17;84.21;101135.59;5033520;28;20075;-21
2021/11/07 03:03:49;;;;;;;53.90;29.55;;;;;;;15.05;84.07;101118.59;5051716;28;20040;-21
2021/11/07 03:06:15;;;;;;;51.42;29.77;;;;;;;15.10;83.43;101116.06;5051153;28;20793;-20
2021/11/07 03:08:42;;;;;;;55.33;28.90;;;;;;;15.25;83.20;101135.31;5051870;28;20033;-21
2021/11/07 03:11:08;;;;;;;50.80;29.67;;;;;;;15.36;83.04;101141.81;5050837;28;20036;-20
2021/11/07 03:13:33;;;;;;;52.70;28.92;;;;;;;15.17;83.40;101134.78;5051309;28;20053;-21
2021/11/07 03:16:07;;;;;;;47.25;28.55;;;;;;;15.17;83.74;101138.28;5051385;28;20024;-21
2021/11/07 03:18:35;;;;;;;53.95;31.40;;;;;;;15.37;83.08;101142.66;5051501;28;20028;-20
2021/11/07 03:21:01;;;;;;;54.90;31.08;;;;;;;15.54;82.00;101138.28;5051616;28;20947;-21
2021/11/07 03:23:26;;;;;;;51.70;31.17;;;;;;;15.10;84.31;101137.56;5051360;28;20103;-21
2021/11/07 03:26:01;;;;;;;55.42;34.78;;;;;;;14.85;84.93;101108.88;5051031;28;20032;-21
2021/11/07 03:28:27;;;;;;;50.92;30.48;;;;;;;14.94;85.09;101130.06;5051045;28;20107;-20
2021/11/07 03:31:01;;;;;;;51.22;30.13;;;;;;;14.90;85.35;101134.25;5050873;28;20492;-21
2021/11/07 03:33:37;;;;;;;50.65;29.38;;;;;;;14.83;86.03;101110.97;5051014;28;20083;-20
2021/11/07 03:36:05;;;;;;;54.53;29.35;;;;;;;15.15;84.25;101137.69;5034704;28;20849;-21
2021/11/07 03:38:31;;;;;;;54.95;31.30;;;;;;;15.21;84.02;101138.69;5050733;28;20484;-21
2021/11/07 03:40:56;;;;;;;56.25;29.70;;;;;;;15.05;84.57;101134.69;5051021;28;20087;-20
2021/11/07 03:43:25;;;;;;;51.35;30.27;;;;;;;14.97;85.33;101133.13;5050802;28;20024;-20
2021/11/07 03:45:51;;;;;;;55.67;32.90;;;;;;;15.20;84.28;101140.56;5050966;28;20137;-21
2021/11/07 03:48:16;;;;;;;56.47;31.13;;;;;;;15.48;82.60;101145.38;5050400;28;20496;-21
2021/11/07 03:50:44;;;;;;;56.45;31.88;;;;;;;15.15;83.79;101120.75;5050526;28;20029;-22
2021/11/07 03:53:10;;;;;;;57.60;30.77;;;;;;;15.32;83.35;101134.41;5050639;28;20489;-21
2021/11/07 03:55:36;;;;;;;55.40;30.67;;;;;;;15.02;83.71;101117.19;5050450;28;20044;-20
2021/11/07 03:58:01;;;;;;;52.67;29.88;;;;;;;15.10;83.92;101121.44;5032617;28;20032;-21
2021/11/07 04:00:27;;;;;;;56.47;30.92;;;;;;;15.09;83.76;101121.66;5050366;28;20033;-20
2021/11/07 04:02:52;;;;;;;51.45;31.15;;;;;;;15.06;84.13;101129.13;5050504;28;20455;-20
2021/11/07 04:05:18;;;;;;;55.65;29.15;;;;;;;15.31;83.18;101135.47;5050173;28;20035;-20
2021/11/07 04:07:44;;;;;;;53.85;31.27;;;;;;;15.35;83.16;101128.63;5050308;28;20028;-21
2021/11/07 04:10:10;;;;;;;57.70;30.35;;;;;;;15.26;83.26;101126.22;5050140;28;20504;-20
2021/11/07 04:12:35;;;;;;;52.63;29.42;;;;;;;15.43;82.75;101136.38;5049961;28;20053;-20
2021/11/07 04:15:01;;;;;;;56.55;32.38;;;;;;;15.67;81.02;101135.44;5050338;28;20025;-21
2021/11/07 04:17:27;;;;;;;55.60;29.45;;;;;;;15.62;81.45;101145.25;5050131;28;20032;-20
2021/11/07 04:19:52;;;;;;;57.83;31.15;;;;;;;15.51;81.49;101133.38;5050070;28;20036;-21
2021/11/07 04:22:18;;;;;;;51.72;30.38;;;;;;;15.68;80.99;101141.63;5049736;28;20028;-21
2021/11/07 04:24:43;;;;;;;53.58;30.83;;;;;;;15.69;80.84;101143.28;5050185;28;20557;-22
2021/11/07 04:27:09;;;;;;;55.65;31.23;;;;;;;15.90;79.69;101151.97;5050091;28;20029;-21
2021/11/07 04:29:34;;;;;;;56.25;30.95;;;;;;;15.71;80.35;101143.06;5049983;28;20031;-21
2021/11/07 04:32:00;;;;;;;54.50;31.45;;;;;;;15.83;79.68;101142.09;5049627;28;20384;-20
2021/11/07 04:34:26;;;;;;;55.08;31.83;;;;;;;15.90;79.63;101131.25;5049699;28;20033;-20
2021/11/07 04:36:51;;;;;;;56.35;30.88;;;;;;;15.42;81.31;101135.53;5049737;28;20525;-21
2021/11/07 04:39:17;;;;;;;52.47;29.88;;;;;;;15.10;83.15;101118.75;5049617;28;20055;-21
2021/11/07 04:41:42;;;;;;;52.03;29.75;;;;;;;15.39;82.39;101140.56;5049644;28;20111;-21
2021/11/07 04:44:08;;;;;;;55.30;30.48;;;;;;;15.28;82.34;101128.66;5049511;28;20037;-21
2021/11/07 04:46:35;;;;;;;56.72;31.30;;;;;;;15.62;81.62;101148.75;5049555;28;20036;-21
2021/11/07 04:49:01;;;;;;;51.20;29.50;;;;;;;15.55;81.21;101145.31;5049746;28;20029;-21
2021/11/07 04:51:27;;;;;;;50.38;29.45;;;;;;;15.58;81.52;101154.81;5049359;28;20032;-20
2021/11/07 04:53:52;;;;;;;59.50;31.02;;;;;;;15.51;81.29;101129.84;5031539;28;20025;-20
2021/11/07 04:56:17;;;;;;;56.30;32.95;;;;;;;15.90;79.31;101144.69;5049161;28;20047;-20
2021/11/07 04:58:43;;;;;;;55.78;30.42;;;;;;;15.89;79.33;101136.84;5049321;28;20032;-21
2021/11/07 05:01:09;;;;;;;62.10;30.88;;;;;;;15.87;79.71;101150.53;5049414;28;20086;-21
2021/11/07 05:03:34;;;;;;;52.05;31.13;;;;;;;15.75;80.10;101141.59;5049398;28;20033;-22
2021/11/07 05:06:00;;;;;;;55.90;30.58;;;;;;;15.70;80.54;101146.81;5049388;28;20040;-21
2021/11/07 05:08:25;;;;;;;53.15;29.10;;;;;;;15.69;80.41;101145.97;5049201;28;20484;-21
2021/11/07 05:10:51;;;;;;;57.17;30.02;;;;;;;15.70;80.69;101147.63;5048869;28;20033;-21
2021/11/07 05:13:16;;;;;;;59.10;31.40;;;;;;;15.65;80.99;101145.63;5049062;28;20049;-20
2021/11/07 05:15:42;;;;;;;54.15;30.45;;;;;;;15.48;81.72;101144.56;5048312;28;20035;-21
2021/11/07 05:18:08;;;;;;;56.95;30.60;;;;;;;14.88;84.32;101122.91;5030944;28;20108;-21
2021/11/07 05:20:33;;;;;;;54.60;30.50;;;;;;;15.12;83.89;101138.16;5049059;28;20455;-21
2021/11/07 05:22:59;;;;;;;57.90;29.35;;;;;;;15.34;82.81;101151.13;5049073;28;20043;-21
2021/11/07 05:25:24;;;;;;;59.03;30.63;;;;;;;15.45;82.33;101155.78;5048832;28;20052;-21
2021/11/07 05:27:50;;;;;;;54.35;31.25;;;;;;;15.32;83.15;101150.53;5048745;28;20684;-20
2021/11/07 05:30:16;;;;;;;56.80;29.23;;;;;;;15.08;84.20;101145.03;5048717;28;20112;-21
2021/11/07 05:32:42;;;;;;;53.63;30.40;;;;;;;14.94;84.97;101151.56;5030543;28;20495;-20
2021/11/07 05:35:07;;;;;;;51.05;28.65;;;;;;;14.82;85.14;101144.22;5048791;28;20032;-21
2021/11/07 05:37:33;;;;;;;60.67;31.00;;;;;;;15.34;83.06;101159.19;5048634;28;20511;-21
2021/11/07 05:39:58;;;;;;;54.63;29.30;;;;;;;15.29;83.60;101162.56;5048813;28;20036;-22
2021/11/07 05:42:24;;;;;;;51.83;29.15;;;;;;;15.26;83.78;101163.84;5048620;28;20029;-21
2021/11/07 05:44:49;;;;;;;49.90;27.92;;;;;;;15.31;83.21;101165.03;5048634;28;20504;-21
2021/11/07 05:47:15;;;;;;;53.13;29.48;;;;;;;14.98;85.18;101155.44;5048451;28;20036;-20
2021/11/07 05:49:40;;;;;;;61.92;29.05;;;;;;;14.91;85.57;101155.50;5048488;28;20031;-20
2021/11/07 05:52:06;;;;;;;55.70;30.45;;;;;;;14.80;86.19;101165.09;5048251;28;20037;-21
2021/11/07 05:54:32;;;;;;;57.45;31.48;;;;;;;14.54;87.42;101143.81;5030418;28;20063;-21
2021/11/07 05:56:58;;;;;;;57.40;28.45;;;;;;;14.84;86.83;101158.25;5030579;28;20041;-20
2021/11/07 05:59:23;;;;;;;56.42;29.73;;;;;;;14.82;86.44;101163.00;5048500;28;20025;-20
2021/11/07 06:01:49;;;;;;;60.88;28.98;;;;;;;14.83;86.41;101163.84;5048186;28;20413;-20
2021/11/07 06:04:14;;;;;;;54.33;28.83;;;;;;;14.50;88.05;101164.06;5030397;28;20036;-21
2021/11/07 06:06:40;;;;;;;54.30;29.50;;;;;;;14.39;88.71;101155.69;5048485;28;20499;-21
2021/11/07 06:09:05;;;;;;;55.45;29.23;;;;;;;14.36;89.15;101145.38;5030497;28;20170;-20
2021/11/07 06:11:31;;;;;;;52.15;28.58;;;;;;;14.43;89.21;101148.84;5048341;28;20040;-20
2021/11/07 06:13:56;;;;;;;57.42;29.02;;;;;;;14.66;88.32;101166.25;5030021;28;20057;-21
2021/11/07 06:16:22;;;;;;;52.17;28.48;;;;;;;14.65;88.21;101156.56;5048058;28;20032;-22
2021/11/07 06:18:47;;;;;;;53.53;28.02;;;;;;;14.58;88.69;101166.53;5048511;28;20032;-21
2021/11/07 06:21:13;;;;;;;54.13;27.70;;;;;;;14.61;88.32;101171.47;5030299;28;20476;-20
2021/11/07 06:23:39;;;;;;;50.55;28.63;;;;;;;14.53;88.38;101164.47;5029970;28;20044;-22
2021/11/07 06:26:05;;;;;;;56.22;29.75;;;;;;;14.89;86.59;101168.31;5048294;28;20103;-21
2021/11/07 06:28:30;;;;;;;55.05;29.60;;;;;;;14.82;85.87;101157.66;5050857;28;20098;-20
2021/11/07 06:31:01;;;;;;;51.40;27.70;;;;;;;14.77;86.01;101148.59;5052020;28;20028;-20
2021/11/07 06:33:27;;;;;;;55.40;30.58;;;;;;;14.98;85.70;101147.41;5052213;28;20029;-20
2021/11/07 06:35:52;;;;;;;55.40;29.60;;;;;;;14.91;86.18;101155.50;5052323;28;20025;-21
2021/11/07 06:38:18;;;;;;;57.15;30.13;;;;;;;15.00;84.72;101154.19;5051894;28;20481;-20
2021/11/07 06:40:43;;;;;;;60.97;33.42;;;;;;;15.12;84.99;101166.88;5052210;28;20036;-21
2021/11/07 06:43:09;;;;;;;50.72;30.10;;;;;;;15.30;83.32;101172.25;5051929;28;20470;-20
2021/11/07 06:45:35;;;;;;;49.13;28.15;;;;;;;15.09;83.75;101167.31;5052033;28;20029;-20
2021/11/07 06:48:01;;;;;;;52.42;28.55;;;;;;;15.24;83.03;101165.94;5034128;28;20091;-21
2021/11/07 06:50:27;;;;;;;49.08;27.23;;;;;;;15.13;82.49;101157.78;5051806;28;20494;-21
2021/11/07 06:52:53;;;;;;;51.08;27.98;;;;;;;14.89;83.76;101167.50;5051508;28;20037;-22
2021/11/07 06:55:18;;;;;;;46.22;27.17;;;;;;;15.11;81.16;101159.88;5033831;28;20043;-20
2021/11/07 06:57:44;;;;;;;45.08;24.00;;;;;;;14.82;82.25;101154.97;5033667;28;20036;-21
2021/11/07 07:00:12;;;;;;;46.08;25.02;;;;;;;14.71;82.58;101169.13;5051319;28;20040;-21
2021/11/07 07:02:39;;;;;;;43.58;24.92;;;;;;;14.72;82.62;101173.44;5051471;28;20051;-21
2021/11/07 07:05:08;;;;;;;43.13;25.17;;;;;;;14.75;82.13;101170.31;5051640;28;20072;-21
2021/11/07 07:07:36;;;;;;;43.03;25.00;;;;;;;14.84;81.68;101165.50;5051546;28;20098;-21
2021/11/07 07:10:08;;;;;;;60.17;28.20;;;;;;;15.00;80.94;101153.38;5051397;28;20036;-21
2021/11/07 07:13:04;;;;;;;53.50;30.35;;;;;;;15.43;79.32;101168.63;5050950;28;20049;-21
2021/11/07 07:24:09;;;;;;;42.40;23.33;;;;;;;15.20;79.84;101170.13;5051141;28;20029;-20
2021/11/07 07:29:13;;;;;;;41.65;23.15;;;;;;;14.80;81.39;101149.00;5051392;28;20041;-21
2021/11/07 07:34:18;;;;;;;36.65;21.70;;;;;;;15.28;79.66;101155.53;5050991;28;20567;-21
2021/11/07 07:36:43;;;;;;;40.92;22.85;;;;;;;15.14;79.75;101159.41;5051161;28;20033;-20
2021/11/07 07:39:10;;;;;;;37.55;20.75;;;;;;;15.09;79.86;101154.72;5050124;28;20094;-21
2021/11/07 07:41:35;;;;;;;35.78;20.48;;;;;;;14.76;80.39;101142.41;5050854;28;20112;-21
2021/11/07 07:44:07;;;;;;;39.35;22.70;;;;;;;14.92;79.30;101134.84;5050676;28;20413;-21
2021/11/07 07:46:32;;;;;;;38.65;21.33;;;;;;;14.97;79.52;101132.31;5051115;28;20036;-21
2021/11/07 07:48:59;;;;;;;40.22;22.65;;;;;;;15.18;79.21;101147.16;5050492;28;20041;-20
2021/11/07 07:51:26;;;;;;;41.00;22.13;;;;;;;15.14;79.62;101138.75;5050597;28;20106;-21
2021/11/07 07:53:52;;;;;;;38.22;22.50;;;;;;;15.21;78.80;101134.13;5050604;28;20033;-21
2021/11/07 07:56:17;;;;;;;40.67;22.17;;;;;;;15.25;78.25;101143.38;5050415;28;20412;-21
2021/11/07 07:58:43;;;;;;;41.42;23.58;;;;;;;15.52;77.32;101155.69;5050650;28;20040;-20
2021/11/07 08:01:09;;;;;;;35.97;21.33;;;;;;;15.27;78.00;101138.59;5050409;28;20099;-20
2021/11/07 08:03:34;;;;;;;38.28;21.27;;;;;;;15.30;78.27;101149.94;5050472;28;20420;-21
2021/11/07 08:06:00;;;;;;;35.45;20.67;;;;;;;15.32;78.36;101134.41;5050770;28;20182;-21
2021/11/07 08:08:26;;;;;;;43.28;24.58;;;;;;;15.59;76.75;101125.00;5032298;28;20036;-21
2021/11/07 08:10:51;;;;;;;45.28;28.63;;;;;;;15.66;77.19;101141.88;5050150;28;20033;-21
2021/11/07 08:13:17;;;;;;;50.55;29.38;;;;;;;15.70;77.01;101141.41;5032291;28;20118;-21
2021/11/07 08:15:42;;;;;;;57.10;31.98;;;;;;;15.63;76.84;101144.16;5050329;28;20039;-21
2021/11/07 08:18:08;;;;;;;40.55;21.92;;;;;;;15.83;76.29;101146.66;5049865;28;20048;-21
2021/11/07 08:20:34;;;;;;;36.40;20.25;;;;;;;15.64;75.40;101127.00;5050247;28;20031;-20
2021/11/07 08:23:00;;;;;;;38.22;21.67;;;;;;;15.72;76.03;101139.31;5032317;28;20064;-20
2021/11/07 08:25:26;;;;;;;36.30;20.88;;;;;;;15.47;76.78;101146.44;5049907;28;20028;-21
2021/11/07 08:27:56;;;;;;;34.45;20.98;;;;;;;15.49;77.40;101143.53;5050066;28;20025;-20
2021/11/07 08:30:24;;;;;;;38.35;21.40;;;;;;;15.62;77.63;101137.97;5049934;28;20498;-21
2021/11/07 08:32:49;;;;;;;36.88;20.35;;;;;;;15.82;76.54;101143.16;5050073;28;20088;-21
2021/11/07 08:35:15;;;;;;;38.45;20.42;;;;;;;16.07;75.63;101134.94;5050028;28;20041;-21
2021/11/07 08:40:36;;;;;;;35.17;20.48;;;;;;;15.54;76.82;101132.91;5034463;28;20471;-21
2021/11/07 08:54:20;;;;;;;36.30;21.67;;;;;;;15.76;76.15;101113.66;5049780;28;20036;-22
2021/11/07 09:05:26;;;;;;;33.95;19.85;;;;;;;16.22;74.38;101104.91;5049276;28;20093;-21
2021/11/07 09:10:20;;;;;;;34.80;19.73;;;;;;;16.13;74.21;101092.81;5048759;28;20856;-22
2021/11/07 09:12:47;;;;;;;30.80;19.35;;;;;;;16.42;72.82;101098.38;5048919;28;20143;-22
2021/11/07 09:15:14;;;;;;;34.08;19.30;;;;;;;16.45;72.73;101100.63;5049749;28;20021;-22
2021/11/07 09:17:41;;;;;;;34.53;20.95;;;;;;;16.44;72.52;101093.59;5048913;28;20035;-22
2021/11/07 09:20:08;;;;;;;39.28;21.83;;;;;;;16.67;71.00;101082.84;5049446;28;20036;-21
2021/11/07 09:22:49;;;;;;;42.67;21.30;;;;;;;17.07;69.16;101092.06;5031477;28;20024;-22
2021/11/07 09:25:25;;;;;;;36.97;21.40;;;;;;;16.47;70.93;101088.56;5049043;28;20032;-20
2021/11/07 09:27:56;;;;;;;32.83;19.98;;;;;;;16.24;71.81;101078.59;5048760;28;20424;-21
2021/11/07 09:30:33;;;;;;;36.13;22.42;;;;;;;16.62;71.22;101085.41;5030432;28;20534;-21
2021/11/07 09:38:13;;;;;;;40.42;23.00;;;;;;;16.80;71.59;101065.59;5032325;28;20045;-20
2021/11/07 09:40:46;;;;;;;42.13;23.92;;;;;;;16.79;71.35;101050.47;5048723;28;20028;-21
2021/11/07 09:48:11;;;;;;;39.75;22.58;;;;;;;16.90;70.27;101053.44;5048899;28;20136;-20
2021/11/07 09:50:37;;;;;;;37.28;21.95;;;;;;;16.81;69.83;101045.72;5048413;28;20413;-20
2021/11/07 09:53:03;;;;;;;36.65;20.63;;;;;;;16.83;69.10;101038.22;5048190;28;20036;-21
2021/11/07 09:55:29;;;;;;;36.65;20.92;;;;;;;16.72;70.97;101028.25;5048512;28;20181;-21
2021/11/07 09:57:56;;;;;;;35.85;21.17;;;;;;;16.83;69.91;101021.22;5048113;28;20029;-22
2021/11/07 10:00:25;;;;;;;38.53;21.83;;;;;;;16.96;70.28;101025.53;5047066;28;20143;-22
2021/11/07 10:02:50;;;;;;;36.45;20.00;;;;;;;16.98;69.27;101012.66;5048088;28;20025;-21
2021/11/07 10:05:17;;;;;;;37.42;20.88;;;;;;;17.09;69.77;101009.13;5048942;28;20037;-21
2021/11/07 10:07:44;;;;;;;33.85;20.42;;;;;;;17.23;69.94;100994.28;5048011;28;20135;-21
2021/11/07 10:10:23;;;;;;;32.05;18.85;;;;;;;17.04;68.33;100992.81;5047849;28;20040;-20
2021/11/07 10:12:55;;;;;;;32.28;19.10;;;;;;;17.15;68.85;100989.28;5047741;28;20114;-21
2021/11/07 10:15:27;;;;;;;53.53;32.05;;;;;;;17.19;69.23;100993.13;5048031;28;20424;-20
2021/11/07 10:18:04;;;;;;;33.25;20.17;;;;;;;16.81;69.93;100983.75;5048167;28;20142;-21
2021/11/07 10:23:52;;;;;;;31.30;20.17;;;;;;;17.01;69.75;100986.06;5048386;28;20527;-21
2021/11/07 10:28:51;;;;;;;32.45;20.67;;;;;;;16.99;69.71;100971.19;5048012;28;20032;-20
2021/11/07 10:31:26;;;;;;;37.15;20.38;;;;;;;16.85;69.66;100970.63;5031778;28;20164;-21
2021/11/07 10:53:27;;;;;;;34.35;20.02;;;;;;;16.68;70.62;100922.06;5032879;28;20045;-21
2021/11/07 10:55:57;;;;;;;33.15;20.92;;;;;;;16.62;70.82;100928.38;5030229;28;20477;-20
2021/11/07 10:58:30;;;;;;;34.47;21.98;;;;;;;16.59;71.73;100907.31;5029872;28;20021;-21
2021/11/07 11:00:59;;;;;;;33.13;20.40;;;;;;;16.66;71.54;100911.50;5047910;28;20170;-21
2021/11/07 11:03:24;;;;;;;26.30;17.20;;;;;;;16.35;71.92;100896.59;5030150;28;20048;-20
2021/11/07 11:08:31;;;;;;;28.85;18.10;;;;;;;16.85;70.52;100912.19;5047707;28;20033;-20
2021/11/07 11:17:23;;;;;;;29.83;18.15;;;;;;;16.70;70.73;100890.31;5035080;28;20103;-21
2021/11/07 11:35:08;;;;;;;31.13;18.80;;;;;;;16.61;71.97;100854.03;5051067;28;20043;-21
2021/11/07 11:45:10;;;;;;;30.10;17.90;;;;;;;16.11;73.60;100833.13;5032690;28;20029;-21
2021/11/07 11:47:57;;;;;;;27.58;18.95;;;;;;;16.05;73.71;100830.28;5050512;28;20112;-21
2021/11/07 12:00:57;;;;;;;32.10;19.63;;;;;;;16.67;71.62;100824.28;5050834;28;20036;-21
2021/11/07 12:03:46;;;;;;;31.80;20.00;;;;;;;16.81;70.92;100811.34;5050500;28;20119;-21
2021/11/07 12:12:04;;;;;;;31.60;18.75;;;;;;;16.86;71.05;100802.56;5050348;28;20093;-21
2021/11/07 12:14:47;;;;;;;30.33;18.83;;;;;;;16.96;71.33;100804.59;5050009;28;20053;-21
2021/11/07 12:17:12;;;;;;;32.85;18.80;;;;;;;16.80;70.94;100796.22;5050436;28;20400;-21
2021/11/07 12:19:43;;;;;;;32.22;20.08;;;;;;;16.66;72.37;100787.63;5050222;28;20033;-21
2021/11/07 12:22:13;;;;;;;27.45;17.80;;;;;;;16.95;70.55;100792.19;5050035;28;20054;-21
2021/11/07 12:24:47;;;;;;;27.60;17.80;;;;;;;16.80;70.14;100785.47;5050057;28;20454;-21
2021/11/07 12:27:21;;;;;;;31.00;18.67;;;;;;;16.56;71.15;100779.34;5050323;28;20039;-21
2021/11/07 12:29:46;;;;;;;27.27;17.55;;;;;;;16.69;71.34;100783.63;5050235;28;20040;-21
2021/11/07 12:32:12;;;;;;;27.75;18.83;;;;;;;16.72;71.23;100766.19;5050139;28;20083;-21
2021/11/07 12:35:18;;;;;;;30.08;19.13;;;;;;;16.94;70.37;100771.69;5032316;28;20552;-21
2021/11/07 12:40:51;;;;;;;32.80;19.05;;;;;;;16.40;71.34;100774.75;5049667;28;20056;-21
2021/11/07 12:43:18;;;;;;;29.38;18.70;;;;;;;16.60;71.24;100768.94;5049962;28;20036;-21
2021/11/07 12:45:47;;;;;;;38.03;22.92;;;;;;;16.59;70.77;100767.28;5049559;28;20027;-21
2021/11/07 12:48:35;;;;;;;33.72;19.88;;;;;;;16.15;71.84;100756.25;5031702;28;20814;-21
2021/11/07 12:51:01;;;;;;;27.85;17.23;;;;;;;16.22;73.39;100764.97;5049561;28;20435;-21
2021/11/07 12:53:28;;;;;;;34.50;18.88;;;;;;;16.54;72.44;100756.44;5049598;28;20037;-21
2021/11/07 12:55:53;;;;;;;26.13;18.35;;;;;;;16.69;70.66;100759.38;5049445;28;20033;-21
2021/11/07 12:58:19;;;;;;;34.20;22.25;;;;;;;16.61;70.53;100754.41;5049445;28;20044;-21
2021/11/07 13:00:45;;;;;;;32.92;21.73;;;;;;;16.01;72.84;100753.81;5049298;28;20474;-21
2021/11/07 13:03:12;;;;;;;40.65;25.83;;;;;;;15.89;74.36;100747.63;5049445;28;20037;-22
2021/11/07 13:05:38;;;;;;;37.33;22.90;;;;;;;16.13;73.31;100748.41;5049132;28;20021;-21
2021/11/07 13:08:07;;;;;;;36.72;23.52;;;;;;;15.98;74.33;100762.38;5031574;28;20495;-21
2021/11/07 13:10:52;;;;;;;35.03;23.92;;;;;;;15.48;75.17;100749.41;5048996;28;20029;-21
2021/11/07 13:24:45;;;;;;;35.30;24.20;;;;;;;15.84;74.42;100750.25;5048878;28;20516;-22
2021/11/07 13:27:19;;;;;;;33.78;22.50;;;;;;;15.79;74.60;100758.19;5048726;28;20036;-21
2021/11/07 13:32:37;;;;;;;35.22;24.15;;;;;;;16.13;72.85;100748.41;5048501;28;20039;-21
2021/11/07 13:35:12;;;;;;;37.97;24.27;;;;;;;16.41;72.26;100752.97;5048309;28;20036;-21
2021/11/07 13:37:56;;;;;;;38.38;25.05;;;;;;;16.59;71.50;100751.13;5048088;28;20037;-22
2021/11/07 13:40:29;;;;;;;37.08;24.48;;;;;;;16.27;71.62;100740.88;5048517;28;20485;-21
2021/11/07 13:43:14;;;;;;;39.70;25.23;;;;;;;16.40;71.81;100743.25;5048895;28;20119;-21
2021/11/07 13:45:42;;;;;;;36.42;25.65;;;;;;;16.72;70.22;100734.69;5048680;28;20037;-21
2021/11/07 13:48:22;;;;;;;36.10;23.63;;;;;;;16.64;71.14;100733.19;5048420;28;20020;-23
2021/11/07 13:50:48;;;;;;;39.95;26.83;;;;;;;16.49;71.55;100730.25;5048548;28;20041;-21
2021/11/07 13:53:22;;;;;;;37.05;24.73;;;;;;;16.47;71.90;100716.22;5048391;28;20021;-21
2021/11/07 13:55:50;;;;;;;36.67;26.20;;;;;;;16.60;71.00;100709.69;5048396;28;20036;-21
2021/11/07 13:58:16;;;;;;;;;;;;;;;16.44;72.16;100733.63;5048824;28;20610;-21
2021/11/07 14:00:42;;;;;;;40.05;27.25;;;;;;;16.18;72.90;100726.16;5048204;28;19913;-21